M. R. Štefánik Airport (BTS/LZIB)



No chart available
Flight Aircraft Arriving
CPX937
EDDK - Cologne Bonn Airport
Germany Cologne, Germany
Flight Aircraft Departing
CPX936
EDDK - Cologne Bonn Airport
Germany Cologne, Germany


Airport Information
Location: Bratislava,
Coordinates: 48.1702 / 17.2127
Field Elevation: 436ft
Longest Runway: 10,457ft
ILS Approaches: YES
Landing Fees: $1,895 per flight
Jet A Price: $0.61/lbs

Current Weather
METAR:
Not available
TAF: TAF LZIB 041715Z 0418/0518 26010KT CAVOK TEMPO 0418/0420 27020G40KT 9999 SHRA FEW050CB TEMPO 0505/0518 9999 SHRA SCT040TCU PROB40 TEMPO 0508/0516 9999 TSRA SCT040CB

Recent Arrivals
Date Flight Type Depart
02/03/2022 CPX936 A30F Cologne Bonn Airport (EDDK)
Recent Departures
Date Flight Type Arrive
02/05/2022 CPX937 A30F Cologne Bonn Airport (EDDK)